Time;durP1;ratioP1;P1;durP2;ratioP2;P2;SDS_P1;SDS_P2;PMS_P1;PMS_P2;Temp;Humidity;BMP_temperature;BMP_pressure;BME280_temperature;BME280_humidity;BME280_pressure;Samples;Min_cycle;Max_cycle;Signal;HPM_P1;HPM_P2
2022/06/20 00:00:41;;;;;;;;;;;;;;;17.29;60.88;100727.13;5066396;28;20151;-77
2022/06/20 00:03:12;;;;;;;;;;;;;;;17.22;61.06;100720.47;5070419;28;19970;-77
2022/06/20 00:05:37;;;;;;;;;;;;;;;17.27;61.12;100707.97;5064738;28;19917;-77
2022/06/20 00:08:03;;;;;;;;;;;;;;;17.18;61.18;100707.56;5062899;28;20278;-77
2022/06/20 00:10:29;;;;;;;;;;;;;;;17.25;61.11;100696.69;5065597;28;20397;-77
2022/06/20 00:12:55;;;;;;;;;;;;;;;17.18;60.94;100700.53;5062893;28;19955;-77
2022/06/20 00:15:25;;;;;;;;;;;;;;;17.26;60.94;100708.91;5063278;28;20409;-77
2022/06/20 00:17:51;;;;;;;;;;;;;;;17.25;61.26;100722.97;5061302;28;19924;-77
2022/06/20 00:20:17;;;;;;;;;;;;;;;17.31;60.67;100737.56;5061741;28;19913;-77
2022/06/20 00:22:42;;;;;;;;;;;;;;;17.29;60.75;100753.41;5064805;28;19924;-77
2022/06/20 00:25:08;;;;;;;;;;;;;;;17.26;60.95;100736.94;5065588;28;19939;-77
2022/06/20 00:27:33;;;;;;;;;;;;;;;17.23;61.32;100708.22;5063762;28;19979;-77
2022/06/20 00:29:59;;;;;;;;;;;;;;;17.29;61.58;100707.91;5063263;28;19920;-77
2022/06/20 00:32:24;;;;;;;;;;;;;;;17.20;62.35;100726.72;5065072;28;19917;-77
2022/06/20 00:34:49;;;;;;;;;;;;;;;17.20;62.87;100735.47;5065900;28;19924;-77
2022/06/20 00:37:19;;;;;;;;;;;;;;;17.08;63.71;100729.94;5065586;28;19973;-77
2022/06/20 00:39:44;;;;;;;;;;;;;;;17.11;63.98;100751.66;5062693;28;19969;-77
2022/06/20 00:42:10;;;;;;;;;;;;;;;17.17;64.94;100775.00;5064982;28;20015;-77
2022/06/20 00:44:38;;;;;;;;;;;;;;;17.10;66.93;100776.19;5068140;28;19924;-77
2022/06/20 00:47:06;;;;;;;;;;;;;;;17.03;66.78;100780.88;5064482;28;19927;-77
2022/06/20 00:49:35;;;;;;;;;;;;;;;17.10;67.19;100809.47;5065919;28;19931;-77
2022/06/20 00:52:00;;;;;;;;;;;;;;;16.93;68.90;100823.38;5065696;28;19924;-77
2022/06/20 00:54:40;;;;;;;;;;;;;;;16.92;68.84;100830.41;5065646;28;20014;-77
2022/06/20 00:57:06;;;;;;;;;;;;;;;16.92;69.35;100861.03;5065556;28;19988;-77
2022/06/20 00:59:39;;;;;;;;;;;;;;;16.99;70.63;100878.22;5064381;28;20426;-77
2022/06/20 01:02:08;;;;;;;;;;;;;;;17.11;68.95;100885.53;5066005;28;19939;-77
2022/06/20 01:04:38;;;;;;;;;;;;;;;17.02;70.93;100905.16;5073991;28;20432;-77
2022/06/20 01:07:07;;;;;;;;;;;;;;;17.00;71.25;100933.22;5069694;28;19920;-77
2022/06/20 01:09:35;;;;;;;;;;;;;;;17.01;71.12;100961.19;5067745;28;20433;-77
2022/06/20 01:12:02;;;;;;;;;;;;;;;17.05;71.14;100964.53;5064922;28;19917;-77
2022/06/20 01:14:27;;;;;;;;;;;;;;;17.03;71.75;100979.47;5072099;28;19956;-76
2022/06/20 01:16:55;;;;;;;;;;;;;;;17.08;73.10;100995.03;5060393;28;19995;-79
2022/06/20 01:19:27;;;;;;;;;;;;;;;17.08;73.09;100989.78;5063803;28;19954;-78
2022/06/20 01:21:53;;;;;;;;;;;;;;;16.98;74.63;101005.94;5063619;28;20031;-78
2022/06/20 01:24:27;;;;;;;;;;;;;;;16.94;74.68;101025.34;5064389;28;20011;-75
2022/06/20 01:27:10;;;;;;;;;;;;;;;16.66;75.54;101040.53;5068810;28;19916;-75
2022/06/20 01:29:36;;;;;;;;;;;;;;;16.72;73.79;101023.72;5065692;28;20360;-75
2022/06/20 01:32:01;;;;;;;;;;;;;;;16.51;73.18;100986.97;5066677;28;20031;-75
2022/06/20 01:34:27;;;;;;;;;;;;;;;16.52;74.30;100990.44;5067249;28;20475;-76
2022/06/20 01:39:42;;;;;;;;;;;;;;;16.26;76.43;100964.44;5073100;28;19939;-75
2022/06/20 01:42:19;;;;;;;;;;;;;;;16.26;76.22;100920.72;5068010;28;20399;-75
2022/06/20 01:44:50;;;;;;;;;;;;;;;16.33;76.29;100887.25;5064348;28;20346;-76
2022/06/20 01:47:16;;;;;;;;;;;;;;;16.36;76.45;100892.34;5067523;28;19924;-75
2022/06/20 01:49:43;;;;;;;;;;;;;;;16.25;75.69;100878.88;5072411;28;20299;-75
2022/06/20 01:52:21;;;;;;;;;;;;;;;16.29;76.80;100862.06;5068413;28;19920;-75
2022/06/20 01:54:54;;;;;;;;;;;;;;;16.14;77.42;100844.38;5069791;28;20330;-75
2022/06/20 01:57:21;;;;;;;;;;;;;;;15.91;78.41;100824.41;5074489;28;19925;-75
2022/06/20 02:00:09;;;;;;;;;;;;;;;15.85;79.02;100774.88;5072922;28;19962;-76
2022/06/20 02:02:36;;;;;;;;;;;;;;;15.81;79.18;100685.09;5075300;28;19974;-78
2022/06/20 02:05:04;;;;;;;;;;;;;;;15.65;80.10;100684.03;5069971;28;19920;-75
2022/06/20 02:07:30;;;;;;;;;;;;;;;15.83;79.95;100670.19;5071183;28;20398;-75
2022/06/20 02:09:56;;;;;;;;;;;;;;;15.57;78.76;100640.78;5072530;28;19920;-75
2022/06/20 02:12:21;;;;;;;;;;;;;;;15.80;78.95;100585.66;5068403;28;20409;-75
2022/06/20 02:14:51;;;;;;;;;;;;;;;15.65;79.92;100560.13;5070455;28;20357;-75
2022/06/20 02:17:23;;;;;;;;;;;;;;;15.47;79.23;100533.00;5068965;28;20559;-75
2022/06/20 02:19:51;;;;;;;;;;;;;;;15.69;79.74;100520.59;5066325;28;20015;-74
2022/06/20 02:22:17;;;;;;;;;;;;;;;15.81;78.58;100475.56;5069061;28;19932;-75
2022/06/20 02:24:46;;;;;;;;;;;;;;;15.77;78.04;100468.78;5063696;28;19944;-75
2022/06/20 02:27:18;;;;;;;;;;;;;;;15.90;77.01;100560.72;5069302;28;19928;-75
2022/06/20 02:29:43;;;;;;;;;;;;;;;15.65;78.24;100587.16;5065019;28;19917;-75
2022/06/20 02:32:09;;;;;;;;;;;;;;;15.69;77.44;100565.13;5070298;28;20359;-75
2022/06/20 02:34:34;;;;;;;;;;;;;;;15.58;78.11;100549.06;5070826;28;19946;-76
2022/06/20 02:37:02;;;;;;;;;;;;;;;15.66;76.84;100546.94;5071171;28;19970;-76
2022/06/20 02:39:28;;;;;;;;;;;;;;;15.81;78.12;100533.19;5069986;28;19921;-76
2022/06/20 02:41:58;;;;;;;;;;;;;;;15.80;78.21;100497.44;5068777;28;19944;-76
2022/06/20 02:44:24;;;;;;;;;;;;;;;15.69;78.84;100475.28;5070334;28;19924;-76
2022/06/20 02:46:51;;;;;;;;;;;;;;;15.83;77.38;100471.13;5067382;28;19959;-76
2022/06/20 02:49:19;;;;;;;;;;;;;;;16.01;78.03;100495.59;5068311;28;19921;-76
2022/06/20 02:51:50;;;;;;;;;;;;;;;15.96;78.09;100523.75;5074755;28;19997;-76
2022/06/20 02:54:17;;;;;;;;;;;;;;;15.95;78.77;100517.69;5067413;28;20038;-76
2022/06/20 02:56:54;;;;;;;;;;;;;;;16.12;78.35;100516.88;5068904;28;19920;-76
2022/06/20 02:59:49;;;;;;;;;;;;;;;16.03;79.25;100551.38;5071276;28;19931;-76
2022/06/20 03:02:16;;;;;;;;;;;;;;;15.89;79.18;100519.75;5050325;28;19925;-76
2022/06/20 03:04:43;;;;;;;;;;;;;;;15.92;79.83;100493.41;5071009;28;20414;-76
2022/06/20 03:07:37;;;;;;;;;;;;;;;15.99;79.91;100486.09;5072981;28;19927;-76
2022/06/20 03:10:29;;;;;;;;;;;;;;;15.86;79.74;100497.16;5067592;28;19943;-76
2022/06/20 03:12:56;;;;;;;;;;;;;;;16.05;77.76;100497.13;5062687;28;19920;-76
2022/06/20 03:15:21;;;;;;;;;;;;;;;15.94;78.56;100525.59;5066653;28;19960;-76
2022/06/20 03:17:48;;;;;;;;;;;;;;;16.00;77.53;100572.47;5067614;28;19952;-76
2022/06/20 03:20:14;;;;;;;;;;;;;;;16.11;78.01;100606.88;5069414;28;19912;-76
2022/06/20 03:22:49;;;;;;;;;;;;;;;16.21;78.25;100644.88;5067467;28;19928;-75
2022/06/20 03:25:16;;;;;;;;;;;;;;;16.20;77.00;100651.00;5065328;28;19974;-78
2022/06/20 03:27:42;;;;;;;;;;;;;;;16.04;78.07;100628.22;5062555;28;20003;-78
2022/06/20 03:30:37;;;;;;;;;;;;;;;15.94;77.15;100633.00;5068856;28;19928;-78
2022/06/20 03:33:04;;;;;;;;;;;;;;;15.81;78.11;100655.41;5052492;28;19955;-78
2022/06/20 03:35:31;;;;;;;;;;;;;;;15.84;77.19;100644.81;5069438;28;19925;-78
2022/06/20 03:38:00;;;;;;;;;;;;;;;15.99;76.28;100669.50;5068597;28;19924;-78
2022/06/20 03:40:26;;;;;;;;;;;;;;;16.11;77.52;100692.50;5068385;28;19932;-78
2022/06/20 03:42:52;;;;;;;;;;;;;;;16.06;76.86;100708.44;5062054;28;19958;-75
2022/06/20 03:45:18;;;;;;;;;;;;;;;16.05;76.53;100721.59;5066268;28;19926;-75
2022/06/20 03:47:48;;;;;;;;;;;;;;;16.01;78.00;100761.97;5065221;28;20007;-78
2022/06/20 03:50:17;;;;;;;;;;;;;;;16.10;78.82;100785.16;5067400;28;19924;-78
2022/06/20 03:52:46;;;;;;;;;;;;;;;15.95;79.42;100787.53;5064021;28;19924;-78
2022/06/20 03:55:24;;;;;;;;;;;;;;;15.87;80.61;100802.72;5066169;28;19947;-78
2022/06/20 03:58:07;;;;;;;;;;;;;;;15.97;78.95;100822.38;5068481;28;19924;-78
2022/06/20 04:00:36;;;;;;;;;;;;;;;15.91;79.65;100827.00;5068440;28;19920;-78
2022/06/20 04:03:10;;;;;;;;;;;;;;;16.07;79.43;100830.69;5065994;28;19935;-75
2022/06/20 04:05:39;;;;;;;;;;;;;;;15.94;79.49;100842.59;5063361;28;19946;-75
2022/06/20 04:08:09;;;;;;;;;;;;;;;15.96;79.84;100846.84;5065854;28;20291;-75
2022/06/20 04:13:26;;;;;;;;;;;;;;;15.69;76.87;100858.44;5061135;28;19951;-75
2022/06/20 04:15:58;;;;;;;;;;;;;;;15.87;77.83;100868.19;5070216;28;19920;-75
2022/06/20 04:18:27;;;;;;;;;;;;;;;15.96;78.66;100866.97;5061489;28;19921;-75
2022/06/20 04:20:57;;;;;;;;;;;;;;;15.90;76.93;100873.31;5071942;28;19923;-75
2022/06/20 04:23:23;;;;;;;;;;;;;;;15.92;76.95;100897.69;5067468;28;20275;-74
2022/06/20 04:26:14;;;;;;;;;;;;;;;15.57;78.22;100889.53;5068346;28;19920;-75
2022/06/20 04:28:58;;;;;;;;;;;;;;;15.15;78.46;100879.81;5063423;28;19928;-75
2022/06/20 04:31:32;;;;;;;;;;;;;;;15.51;78.26;100882.72;5060761;28;19924;-75
2022/06/20 04:34:03;;;;;;;;;;;;;;;15.46;77.22;100861.13;5066307;28;19920;-76
2022/06/20 04:36:32;;;;;;;;;;;;;;;15.39;77.51;100846.59;5072131;28;20406;-76
2022/06/20 04:39:01;;;;;;;;;;;;;;;14.91;78.11;100851.94;5069995;28;19932;-76
2022/06/20 04:41:46;;;;;;;;;;;;;;;14.96;78.52;100834.31;5066205;28;19917;-76
2022/06/20 04:44:18;;;;;;;;;;;;;;;14.89;77.95;100827.59;5062962;28;19928;-76
2022/06/20 04:46:48;;;;;;;;;;;;;;;15.05;77.00;100820.03;5068001;28;19924;-76
2022/06/20 04:49:15;;;;;;;;;;;;;;;14.91;77.07;100810.09;5066254;28;19928;-76
2022/06/20 04:51:42;;;;;;;;;;;;;;;14.79;80.14;100800.09;5069021;28;19968;-76
2022/06/20 04:54:13;;;;;;;;;;;;;;;15.00;78.97;100801.91;5068268;28;19921;-76
2022/06/20 04:56:39;;;;;;;;;;;;;;;15.14;77.86;100803.97;5060607;28;19924;-76
2022/06/20 04:59:06;;;;;;;;;;;;;;;15.20;77.49;100788.03;5068052;28;19925;-76
2022/06/20 05:01:33;;;;;;;;;;;;;;;14.98;77.27;100774.09;5067614;28;19925;-76
2022/06/20 05:04:07;;;;;;;;;;;;;;;14.82;76.95;100785.16;5061336;28;19924;-76
2022/06/20 05:06:35;;;;;;;;;;;;;;;14.87;76.64;100780.59;5067976;28;19954;-76
2022/06/20 05:09:04;;;;;;;;;;;;;;;14.88;76.18;100786.69;5067445;28;19970;-76
2022/06/20 05:11:35;;;;;;;;;;;;;;;14.76;75.22;100776.69;5066603;28;20393;-76
2022/06/20 05:14:06;;;;;;;;;;;;;;;14.81;76.79;100783.44;5063163;28;20300;-76
2022/06/20 05:16:34;;;;;;;;;;;;;;;14.78;77.57;100780.94;5057892;28;19928;-76
2022/06/20 05:19:02;;;;;;;;;;;;;;;14.83;77.16;100783.34;5064776;28;19928;-76
2022/06/20 05:21:33;;;;;;;;;;;;;;;14.78;77.29;100778.31;5063059;28;19920;-76
2022/06/20 05:24:02;;;;;;;;;;;;;;;14.93;76.53;100791.72;5066118;28;20003;-76
2022/06/20 05:26:30;;;;;;;;;;;;;;;14.97;77.06;100802.00;5065930;28;20518;-76
2022/06/20 05:28:58;;;;;;;;;;;;;;;14.75;78.09;100807.19;5058150;28;20019;-76
2022/06/20 05:31:34;;;;;;;;;;;;;;;14.74;76.96;100805.47;5067157;28;19916;-76
2022/06/20 05:34:09;;;;;;;;;;;;;;;14.86;76.62;100806.78;5066236;28;19935;-76
2022/06/20 05:36:40;;;;;;;;;;;;;;;14.73;77.16;100806.38;5065891;28;19924;-76
2022/06/20 05:39:11;;;;;;;;;;;;;;;14.94;77.08;100815.22;5061272;28;20422;-78
2022/06/20 05:41:36;;;;;;;;;;;;;;;15.02;76.86;100827.97;5070272;28;19922;-79
2022/06/20 05:44:04;;;;;;;;;;;;;;;15.00;76.46;100828.06;5062500;28;19928;-78
2022/06/20 05:46:35;;;;;;;;;;;;;;;15.09;76.12;100834.69;5061987;28;19929;-78
2022/06/20 05:49:03;;;;;;;;;;;;;;;14.98;77.01;100858.63;5063838;28;20386;-78
2022/06/20 05:51:28;;;;;;;;;;;;;;;15.25;76.37;100862.81;5068814;28;20015;-76
2022/06/20 05:54:09;;;;;;;;;;;;;;;15.17;75.32;100861.41;5073691;28;20004;-76
2022/06/20 05:56:37;;;;;;;;;;;;;;;15.25;76.68;100867.19;5074701;28;19931;-76
2022/06/20 05:59:03;;;;;;;;;;;;;;;15.39;77.20;100868.38;5060806;28;19943;-78
2022/06/20 06:01:32;;;;;;;;;;;;;;;15.43;75.65;100879.56;5064506;28;19943;-79
2022/06/20 06:03:57;;;;;;;;;;;;;;;15.53;76.97;100875.69;5065736;28;20394;-78
2022/06/20 06:06:24;;;;;;;;;;;;;;;15.59;77.57;100874.59;5064578;28;19921;-78
2022/06/20 06:08:54;;;;;;;;;;;;;;;15.53;74.49;100880.94;5066012;28;19925;-78
2022/06/20 06:11:23;;;;;;;;;;;;;;;15.36;75.62;100885.97;5065149;28;19967;-78
2022/06/20 06:13:58;;;;;;;;;;;;;;;15.37;74.53;100880.66;5065794;28;19932;-78
2022/06/20 06:16:53;;;;;;;;;;;;;;;15.25;76.96;100875.03;5069218;28;20452;-78
2022/06/20 06:19:18;;;;;;;;;;;;;;;15.55;76.82;100870.38;5060949;28;19964;-76
2022/06/20 06:21:46;;;;;;;;;;;;;;;15.41;77.59;100868.31;5070533;28;20343;-76
2022/06/20 06:24:12;;;;;;;;;;;;;;;15.50;76.87;100872.34;5077943;28;19938;-76
2022/06/20 06:26:39;;;;;;;;;;;;;;;15.41;77.33;100876.19;5073036;28;19921;-76
2022/06/20 06:29:05;;;;;;;;;;;;;;;15.39;75.99;100870.97;5075076;28;20590;-76
2022/06/20 06:31:40;;;;;;;;;;;;;;;15.36;75.75;100878.13;5081113;28;19916;-76
2022/06/20 06:34:17;;;;;;;;;;;;;;;15.50;77.40;100883.66;5080291;28;20288;-76
2022/06/20 06:36:45;;;;;;;;;;;;;;;15.51;75.93;100892.38;5076202;28;19946;-76
2022/06/20 06:39:12;;;;;;;;;;;;;;;15.57;76.75;100874.63;5068716;28;19929;-76
2022/06/20 06:41:38;;;;;;;;;;;;;;;15.45;74.91;100875.16;5084231;28;19927;-77
2022/06/20 06:44:15;;;;;;;;;;;;;;;15.45;75.70;100883.00;5067962;28;19970;-78
2022/06/20 06:46:42;;;;;;;;;;;;;;;15.35;75.02;100898.22;5069913;28;19981;-75
2022/06/20 06:49:23;;;;;;;;;;;;;;;15.42;76.54;100896.22;5071516;28;19927;-75
2022/06/20 06:52:00;;;;;;;;;;;;;;;15.40;75.92;100892.78;5068161;28;19924;-76
2022/06/20 06:54:43;;;;;;;;;;;;;;;15.37;76.08;100909.47;5075475;28;19927;-76
2022/06/20 06:57:15;;;;;;;;;;;;;;;15.40;74.78;100900.63;5068521;28;19921;-76
2022/06/20 06:59:44;;;;;;;;;;;;;;;15.34;76.44;100887.78;5062753;28;19916;-76
2022/06/20 07:02:12;;;;;;;;;;;;;;;15.18;75.94;100874.47;5062971;28;19948;-76
2022/06/20 07:04:58;;;;;;;;;;;;;;;15.35;75.03;100886.88;5067431;28;19929;-76
2022/06/20 07:07:28;;;;;;;;;;;;;;;15.22;75.14;100914.41;5077553;28;19916;-76
2022/06/20 07:09:54;;;;;;;;;;;;;;;15.37;74.09;100922.56;5069136;28;20448;-76
2022/06/20 07:12:36;;;;;;;;;;;;;;;15.47;74.58;100928.28;5070123;28;19924;-75
2022/06/20 07:15:15;;;;;;;;;;;;;;;15.34;73.54;100929.66;5070466;28;19921;-76
2022/06/20 07:17:43;;;;;;;;;;;;;;;15.05;74.70;100933.38;5067509;28;19943;-76
2022/06/20 07:20:11;;;;;;;;;;;;;;;15.27;73.82;100936.06;5067822;28;20289;-76
2022/06/20 07:22:36;;;;;;;;;;;;;;;15.12;73.57;100955.81;5067253;28;19924;-76
2022/06/20 07:25:02;;;;;;;;;;;;;;;15.14;72.88;100966.19;5076090;28;20046;-76
2022/06/20 07:27:30;;;;;;;;;;;;;;;14.93;73.48;100959.97;5071430;28;19935;-76
2022/06/20 07:30:00;;;;;;;;;;;;;;;15.08;72.49;100969.03;5074677;28;20372;-76
2022/06/20 07:32:31;;;;;;;;;;;;;;;15.00;74.51;100958.00;5084315;28;19916;-76
2022/06/20 07:34:59;;;;;;;;;;;;;;;14.99;73.32;100953.66;5080243;28;19935;-75
2022/06/20 07:37:34;;;;;;;;;;;;;;;15.11;72.36;100956.69;5068765;28;20011;-75
2022/06/20 07:40:15;;;;;;;;;;;;;;;15.08;72.09;100956.81;5066182;28;19928;-78
2022/06/20 07:43:00;;;;;;;;;;;;;;;14.93;72.56;100964.34;5068970;28;20395;-76
2022/06/20 07:45:28;;;;;;;;;;;;;;;14.92;70.82;100988.81;5063269;28;19921;-76
2022/06/20 07:48:14;;;;;;;;;;;;;;;14.94;72.66;101006.16;5066229;28;19916;-76
2022/06/20 07:50:43;;;;;;;;;;;;;;;15.01;73.07;101005.03;5062165;28;20042;-76
2022/06/20 07:53:13;;;;;;;;;;;;;;;14.98;73.00;101001.69;5068492;28;19944;-76
2022/06/20 07:55:42;;;;;;;;;;;;;;;14.99;75.14;101004.22;5068834;28;19931;-76
2022/06/20 07:58:12;;;;;;;;;;;;;;;14.55;75.80;101016.19;5068019;28;20012;-76
2022/06/20 08:00:42;;;;;;;;;;;;;;;14.68;76.59;101029.72;5065752;28;19920;-76
2022/06/20 08:03:10;;;;;;;;;;;;;;;14.55;76.58;101037.09;5072074;28;19931;-76
2022/06/20 08:05:41;;;;;;;;;;;;;;;14.52;76.17;101057.25;5066378;28;19922;-75
2022/06/20 08:08:12;;;;;;;;;;;;;;;14.54;75.37;101060.66;5061428;28;20410;-75
2022/06/20 08:10:41;;;;;;;;;;;;;;;14.70;73.54;101060.13;5063015;28;19921;-76
2022/06/20 08:13:12;;;;;;;;;;;;;;;14.66;73.65;101074.19;5065873;28;19954;-76
2022/06/20 08:15:42;;;;;;;;;;;;;;;14.81;74.53;101083.31;5069286;28;19917;-76
2022/06/20 08:18:08;;;;;;;;;;;;;;;14.76;71.77;101093.09;5066185;28;19952;-76
2022/06/20 08:20:38;;;;;;;;;;;;;;;14.69;72.70;101094.16;5076287;28;20001;-76
2022/06/20 08:23:13;;;;;;;;;;;;;;;14.63;73.35;101084.75;5066766;28;19932;-74
2022/06/20 08:25:45;;;;;;;;;;;;;;;14.68;74.74;101075.00;5060654;28;19921;-75
2022/06/20 08:28:13;;;;;;;;;;;;;;;14.75;74.53;101087.00;5069684;28;19928;-78
2022/06/20 08:30:47;;;;;;;;;;;;;;;14.91;73.89;101086.50;5065401;28;19921;-78
2022/06/20 08:33:48;;;;;;;;;;;;;;;14.98;73.99;101085.41;5075186;28;20421;-77
2022/06/20 08:36:23;;;;;;;;;;;;;;;14.75;74.96;101094.00;5001161;28;19957;-78
2022/06/20 08:38:54;;;;;;;;;;;;;;;14.84;75.56;101110.25;5047414;28;20292;-78
2022/06/20 08:41:26;;;;;;;;;;;;;;;14.98;75.55;101106.31;5064140;28;20046;-78
2022/06/20 08:43:52;;;;;;;;;;;;;;;14.91;76.13;101100.44;5080774;28;19970;-75
2022/06/20 08:46:23;;;;;;;;;;;;;;;14.97;76.87;101100.22;5064201;28;19920;-75
2022/06/20 08:48:54;;;;;;;;;;;;;;;14.95;77.22;101102.03;5066701;28;19921;-75
2022/06/20 08:51:39;;;;;;;;;;;;;;;15.08;76.75;101103.34;5061982;28;19977;-75
2022/06/20 08:54:04;;;;;;;;;;;;;;;15.10;77.12;101109.34;5066220;28;19920;-75
2022/06/20 08:56:48;;;;;;;;;;;;;;;15.15;76.77;101112.69;5075296;28;19923;-75
2022/06/20 08:59:25;;;;;;;;;;;;;;;15.16;76.36;101114.38;5066405;28;19920;-75
2022/06/20 09:01:56;;;;;;;;;;;;;;;15.16;76.99;101109.16;5066489;28;19935;-75
2022/06/20 09:04:24;;;;;;;;;;;;;;;15.17;76.85;101104.78;5067990;28;20031;-75
2022/06/20 09:07:02;;;;;;;;;;;;;;;15.13;77.55;101114.47;5081144;28;20442;-75
2022/06/20 09:09:42;;;;;;;;;;;;;;;15.17;76.49;101116.09;5071681;28;20011;-75
2022/06/20 09:12:27;;;;;;;;;;;;;;;15.06;77.56;101113.00;5068085;28;19928;-75
2022/06/20 09:15:11;;;;;;;;;;;;;;;15.18;77.76;101106.50;5065748;28;19924;-75
2022/06/20 09:18:05;;;;;;;;;;;;;;;15.20;76.68;101115.13;5066626;28;19908;-75
2022/06/20 09:20:49;;;;;;;;;;;;;;;15.21;76.28;101122.09;4985746;28;19946;-75
2022/06/20 09:23:47;;;;;;;;;;;;;;;15.37;76.53;101120.63;5061819;28;19920;-75
2022/06/20 09:26:31;;;;;;;;;;;;;;;15.28;75.18;101124.44;5031233;28;19920;-75
2022/06/20 09:29:15;;;;;;;;;;;;;;;15.23;76.60;101133.34;5062490;28;19924;-75
2022/06/20 09:31:50;;;;;;;;;;;;;;;15.21;77.92;101143.03;5064292;28;20394;-75
2022/06/20 09:34:34;;;;;;;;;;;;;;;15.35;76.85;101154.72;5059080;28;19959;-75
2022/06/20 09:37:02;;;;;;;;;;;;;;;15.41;76.03;101153.66;5063875;28;19920;-75
2022/06/20 09:39:46;;;;;;;;;;;;;;;15.52;76.65;101161.13;5067798;28;19949;-75
2022/06/20 09:42:24;;;;;;;;;;;;;;;15.59;76.16;101157.41;5066223;28;20373;-75
2022/06/20 09:45:05;;;;;;;;;;;;;;;15.42;77.23;101156.22;5068329;28;19960;-75
2022/06/20 09:47:42;;;;;;;;;;;;;;;15.43;77.42;101157.06;5060776;28;19974;-75
2022/06/20 09:50:10;;;;;;;;;;;;;;;15.45;75.75;101157.03;5067025;28;19955;-75
2022/06/20 09:52:43;;;;;;;;;;;;;;;15.54;76.26;101156.72;5066944;28;19982;-75
2022/06/20 09:55:30;;;;;;;;;;;;;;;15.44;75.01;101148.31;5067791;28;19951;-75
2022/06/20 09:57:59;;;;;;;;;;;;;;;15.53;76.37;101155.00;5069422;28;20295;-75
2022/06/20 10:00:29;;;;;;;;;;;;;;;15.52;75.70;101156.75;5070063;28;19951;-75
2022/06/20 10:02:58;;;;;;;;;;;;;;;15.61;76.18;101155.56;5066294;28;20543;-75
2022/06/20 10:05:36;;;;;;;;;;;;;;;15.65;76.32;101141.47;5072955;28;19935;-75
2022/06/20 10:08:19;;;;;;;;;;;;;;;15.53;73.85;101149.75;5073669;28;20016;-75
2022/06/20 10:10:54;;;;;;;;;;;;;;;15.51;72.50;101165.50;5067000;28;20535;-75
2022/06/20 10:13:24;;;;;;;;;;;;;;;15.60;71.11;101177.44;5065376;28;20012;-75
2022/06/20 10:15:59;;;;;;;;;;;;;;;15.56;72.97;101195.03;5073459;28;20394;-75
2022/06/20 10:18:34;;;;;;;;;;;;;;;15.62;72.88;101202.66;5067910;28;20003;-75
2022/06/20 10:21:05;;;;;;;;;;;;;;;15.63;70.31;101191.25;5073343;28;19928;-75
2022/06/20 10:23:43;;;;;;;;;;;;;;;15.64;71.77;101195.59;5072165;28;19924;-75
2022/06/20 10:26:22;;;;;;;;;;;;;;;15.45;72.67;101197.16;5063329;28;20288;-77
2022/06/20 10:28:58;;;;;;;;;;;;;;;15.55;73.85;101193.31;5073241;28;19924;-76
2022/06/20 10:31:35;;;;;;;;;;;;;;;15.53;73.63;101187.28;5072845;28;20019;-76
2022/06/20 10:34:07;;;;;;;;;;;;;;;15.54;74.59;101188.97;5066550;28;20402;-76
2022/06/20 10:36:39;;;;;;;;;;;;;;;15.48;74.76;101191.81;5069962;28;19920;-76
2022/06/20 10:39:04;;;;;;;;;;;;;;;15.53;74.64;101196.88;5067252;28;19921;-76
2022/06/20 10:41:33;;;;;;;;;;;;;;;15.48;73.81;101199.69;5064380;28;20292;-76
2022/06/20 10:44:17;;;;;;;;;;;;;;;15.52;73.89;101195.16;5068010;28;19928;-76
2022/06/20 10:46:54;;;;;;;;;;;;;;;15.35;73.76;101183.53;5062585;28;20007;-76
2022/06/20 10:49:23;;;;;;;;;;;;;;;15.20;74.05;101196.25;5062238;28;19928;-76
2022/06/20 10:51:48;;;;;;;;;;;;;;;15.52;73.30;101203.88;5060718;28;19924;-76
2022/06/20 10:54:14;;;;;;;;;;;;;;;15.56;72.21;101199.41;5060916;28;19929;-76
2022/06/20 10:56:57;;;;;;;;;;;;;;;15.55;73.23;101190.69;5064092;28;19924;-76
2022/06/20 10:59:37;;;;;;;;;;;;;;;15.60;73.20;101191.38;5065199;28;19920;-77
2022/06/20 11:02:02;;;;;;;;;;;;;;;15.67;72.94;101205.13;5068515;28;20035;-77
2022/06/20 11:04:34;;;;;;;;;;;;;;;15.67;73.90;101195.50;5081433;28;20430;-77
2022/06/20 11:07:09;;;;;;;;;;;;;;;15.60;72.07;101180.06;5072958;28;19920;-77
2022/06/20 11:09:35;;;;;;;;;;;;;;;15.60;72.20;101185.31;5070345;28;19920;-76
2022/06/20 11:12:00;;;;;;;;;;;;;;;15.71;72.55;101189.25;5088132;28;19924;-75
2022/06/20 11:14:44;;;;;;;;;;;;;;;15.65;72.76;101197.31;5073016;28;19952;-75
2022/06/20 11:17:18;;;;;;;;;;;;;;;15.72;73.34;101211.91;5069481;28;19924;-76
2022/06/20 11:20:02;;;;;;;;;;;;;;;15.74;72.51;101219.72;5073097;28;20033;-75
2022/06/20 11:22:41;;;;;;;;;;;;;;;15.84;72.65;101210.63;5085295;28;19959;-76
2022/06/20 11:25:18;;;;;;;;;;;;;;;15.83;71.15;101206.31;5055806;28;19927;-76
2022/06/20 11:27:53;;;;;;;;;;;;;;;15.93;71.54;101202.44;5073820;28;19921;-75
2022/06/20 11:30:32;;;;;;;;;;;;;;;15.90;70.09;101211.28;5070943;28;19920;-76
2022/06/20 11:33:16;;;;;;;;;;;;;;;15.80;69.92;101206.44;5080034;28;19924;-76
2022/06/20 11:36:02;;;;;;;;;;;;;;;15.84;72.25;101223.72;5074112;28;19944;-76
2022/06/20 11:38:46;;;;;;;;;;;;;;;15.83;72.03;101232.53;5066450;28;19916;-76
2022/06/20 11:41:25;;;;;;;;;;;;;;;15.83;72.40;101228.16;5072244;28;19942;-75
2022/06/20 11:44:10;;;;;;;;;;;;;;;15.89;71.85;101222.69;5066341;28;20019;-75
2022/06/20 11:46:54;;;;;;;;;;;;;;;15.91;70.67;101228.72;5068665;28;19970;-79
2022/06/20 11:49:26;;;;;;;;;;;;;;;15.83;72.26;101225.53;5068264;28;20007;-79
2022/06/20 11:51:51;;;;;;;;;;;;;;;15.84;71.82;101219.34;5066356;28;19943;-78
2022/06/20 11:54:29;;;;;;;;;;;;;;;15.89;71.75;101199.09;5066078;28;19924;-77
2022/06/20 11:57:00;;;;;;;;;;;;;;;15.80;72.00;101203.81;5064275;28;19977;-77
2022/06/20 11:59:28;;;;;;;;;;;;;;;15.84;69.94;101208.88;5067104;28;20082;-76
2022/06/20 12:02:00;;;;;;;;;;;;;;;15.97;71.24;101202.31;5067546;28;20288;-75
2022/06/20 12:04:34;;;;;;;;;;;;;;;16.01;70.81;101195.19;5064823;28;19920;-76
2022/06/20 12:07:05;;;;;;;;;;;;;;;15.97;70.62;101190.97;5070327;28;20002;-76
2022/06/20 12:09:34;;;;;;;;;;;;;;;16.02;70.71;101199.50;5057606;28;19920;-76
2022/06/20 12:12:08;;;;;;;;;;;;;;;16.00;70.66;101187.38;5066082;28;19966;-76
2022/06/20 12:14:34;;;;;;;;;;;;;;;15.95;70.67;101183.16;5076488;28;19919;-77
2022/06/20 12:17:06;;;;;;;;;;;;;;;16.05;71.05;101183.66;5063840;28;19920;-77
2022/06/20 12:25:25;;;;;;;;;;;;;;;16.17;71.03;101187.59;5064464;28;20406;-77
2022/06/20 12:27:51;;;;;;;;;;;;;;;16.26;70.17;101182.00;5070363;28;20692;-76
2022/06/20 12:30:17;;;;;;;;;;;;;;;16.38;71.37;101179.78;5064308;28;20003;-76
2022/06/20 12:32:45;;;;;;;;;;;;;;;16.38;68.90;101184.16;5073950;28;19928;-76
2022/06/20 12:35:16;;;;;;;;;;;;;;;16.39;68.48;101180.63;5073616;28;19928;-77
2022/06/20 12:37:45;;;;;;;;;;;;;;;16.48;69.88;101175.03;5068316;28;20433;-77
2022/06/20 12:40:10;;;;;;;;;;;;;;;16.61;70.66;101171.00;5064200;28;20019;-76
2022/06/20 12:42:36;;;;;;;;;;;;;;;16.70;68.27;101172.47;5061341;28;20398;-77
2022/06/20 12:45:01;;;;;;;;;;;;;;;16.73;69.10;101167.94;5065118;28;19929;-77
2022/06/20 12:47:32;;;;;;;;;;;;;;;16.78;68.33;101166.00;5067621;28;19913;-77
2022/06/20 12:50:04;;;;;;;;;;;;;;;16.78;70.11;101166.00;5063638;28;19921;-77
2022/06/20 12:52:48;;;;;;;;;;;;;;;16.78;67.70;101163.38;5059730;28;19921;-77
2022/06/20 12:55:19;;;;;;;;;;;;;;;16.87;67.84;101168.25;5065511;28;20399;-77
2022/06/20 12:57:53;;;;;;;;;;;;;;;16.86;66.58;101163.91;5064274;28;19929;-77
2022/06/20 13:00:34;;;;;;;;;;;;;;;16.83;67.75;101165.78;5060508;28;20514;-76
2022/06/20 13:03:08;;;;;;;;;;;;;;;16.84;67.33;101163.13;5063194;28;19967;-76
2022/06/20 13:05:42;;;;;;;;;;;;;;;16.76;67.19;101156.50;5063860;28;19917;-76
2022/06/20 13:08:26;;;;;;;;;;;;;;;16.85;68.04;101159.56;5061194;28;20004;-75
2022/06/20 13:11:08;;;;;;;;;;;;;;;16.91;66.50;101155.84;5061241;28;19966;-75